sensor_id;sensor_type;location;lat;lon;timestamp;pressure;altitude;pressure_sealevel;temperature;humidity
63903;BME280;50072;50.678;13.938;2023-04-04T00:01:11;100693.59;;;2.09;65.52
63903;BME280;50072;50.678;13.938;2023-04-04T00:03:43;100690.06;;;2.09;64.78
63903;BME280;50072;50.678;13.938;2023-04-04T00:06:13;100694.50;;;2.10;65.30
63903;BME280;50072;50.678;13.938;2023-04-04T00:08:44;100687.44;;;2.09;65.58
63903;BME280;50072;50.678;13.938;2023-04-04T00:11:11;100684.72;;;2.05;65.90
63903;BME280;50072;50.678;13.938;2023-04-04T00:13:44;100681.16;;;2.05;65.54
63903;BME280;50072;50.678;13.938;2023-04-04T00:16:16;100679.41;;;2.04;65.54
63903;BME280;50072;50.678;13.938;2023-04-04T00:18:43;100679.44;;;2.05;65.49
63903;BME280;50072;50.678;13.938;2023-04-04T00:21:12;100675.91;;;2.06;65.12
63903;BME280;50072;50.678;13.938;2023-04-04T00:23:43;100677.66;;;2.04;65.98
63903;BME280;50072;50.678;13.938;2023-04-04T00:26:10;100673.28;;;2.06;65.76
63903;BME280;50072;50.678;13.938;2023-04-04T00:28:43;100675.03;;;2.06;66.61
63903;BME280;50072;50.678;13.938;2023-04-04T00:31:13;100660.13;;;2.08;66.34
63903;BME280;50072;50.678;13.938;2023-04-04T00:33:43;100667.03;;;2.03;66.26
63903;BME280;50072;50.678;13.938;2023-04-04T00:36:16;100664.38;;;2.01;65.87
63903;BME280;50072;50.678;13.938;2023-04-04T00:38:43;100657.44;;;2.06;66.14
63903;BME280;50072;50.678;13.938;2023-04-04T00:41:15;100656.63;;;2.09;66.43
63903;BME280;50072;50.678;13.938;2023-04-04T00:43:41;100653.81;;;2.01;65.53
63903;BME280;50072;50.678;13.938;2023-04-04T00:46:13;100653.88;;;2.04;66.75
63903;BME280;50072;50.678;13.938;2023-04-04T00:48:46;100654.69;;;2.02;66.70
63903;BME280;50072;50.678;13.938;2023-04-04T00:51:13;100647.59;;;2.01;66.73
63903;BME280;50072;50.678;13.938;2023-04-04T00:53:45;100648.53;;;2.01;67.67
63903;BME280;50072;50.678;13.938;2023-04-04T00:56:14;100648.59;;;2.04;67.50
63903;BME280;50072;50.678;13.938;2023-04-04T00:58:46;100644.06;;;1.99;67.35
63903;BME280;50072;50.678;13.938;2023-04-04T01:01:13;100635.28;;;2.00;67.22
63903;BME280;50072;50.678;13.938;2023-04-04T01:03:42;100635.13;;;1.94;67.00
63903;BME280;50072;50.678;13.938;2023-04-04T01:06:14;100650.88;;;1.90;67.35
63903;BME280;50072;50.678;13.938;2023-04-04T01:08:42;100647.31;;;1.88;67.60
63903;BME280;50072;50.678;13.938;2023-04-04T01:11:14;100640.09;;;1.81;67.55
63903;BME280;50072;50.678;13.938;2023-04-04T01:13:43;100640.91;;;1.79;67.05
63903;BME280;50072;50.678;13.938;2023-04-04T01:16:16;100637.31;;;1.77;67.86
63903;BME280;50072;50.678;13.938;2023-04-04T01:18:44;100639.06;;;1.76;68.03
63903;BME280;50072;50.678;13.938;2023-04-04T01:21:16;100634.53;;;1.70;67.83
63903;BME280;50072;50.678;13.938;2023-04-04T01:26:13;100633.63;;;1.70;67.98
63903;BME280;50072;50.678;13.938;2023-04-04T01:28:43;100634.56;;;1.72;68.27
63903;BME280;50072;50.678;13.938;2023-04-04T01:31:14;100631.88;;;1.70;67.73
63903;BME280;50072;50.678;13.938;2023-04-04T01:33:48;100619.53;;;1.69;68.41
63903;BME280;50072;50.678;13.938;2023-04-04T01:39:22;100625.72;;;1.70;68.70
63903;BME280;50072;50.678;13.938;2023-04-04T01:41:55;100631.81;;;1.67;68.32
63903;BME280;50072;50.678;13.938;2023-04-04T01:44:24;100625.53;;;1.64;67.67
63903;BME280;50072;50.678;13.938;2023-04-04T01:46:54;100618.50;;;1.63;67.12
63903;BME280;50072;50.678;13.938;2023-04-04T01:49:22;100623.78;;;1.63;67.42
63903;BME280;50072;50.678;13.938;2023-04-04T01:51:53;100617.59;;;1.62;68.33
63903;BME280;50072;50.678;13.938;2023-04-04T01:54:40;100611.47;;;1.63;67.99
63903;BME280;50072;50.678;13.938;2023-04-04T01:57:08;100621.19;;;1.64;67.75
63903;BME280;50072;50.678;13.938;2023-04-04T01:59:43;100609.66;;;1.62;67.66
63903;BME280;50072;50.678;13.938;2023-04-04T02:02:15;100611.34;;;1.59;68.37
63903;BME280;50072;50.678;13.938;2023-04-04T02:04:44;100608.69;;;1.57;68.46
63903;BME280;50072;50.678;13.938;2023-04-04T02:07:09;100607.69;;;1.53;68.28
63903;BME280;50072;50.678;13.938;2023-04-04T02:09:44;100605.16;;;1.58;68.97
63903;BME280;50072;50.678;13.938;2023-04-04T02:12:16;100599.84;;;1.57;68.71
63903;BME280;50072;50.678;13.938;2023-04-04T02:14:43;100597.31;;;1.60;68.41
63903;BME280;50072;50.678;13.938;2023-04-04T02:17:14;100599.84;;;1.57;68.90
63903;BME280;50072;50.678;13.938;2023-04-04T02:19:46;100600.81;;;1.59;68.68
63903;BME280;50072;50.678;13.938;2023-04-04T02:22:13;100601.78;;;1.64;69.07
63903;BME280;50072;50.678;13.938;2023-04-04T02:24:45;100599.06;;;1.61;67.78
63903;BME280;50072;50.678;13.938;2023-04-04T02:27:13;100601.03;;;1.68;67.75
63903;BME280;50072;50.678;13.938;2023-04-04T02:29:45;100600.94;;;1.65;67.52
63903;BME280;50072;50.678;13.938;2023-04-04T02:32:14;100600.06;;;1.64;67.84
63903;BME280;50072;50.678;13.938;2023-04-04T02:34:43;100596.50;;;1.64;67.90
63903;BME280;50072;50.678;13.938;2023-04-04T02:37:13;100591.28;;;1.65;67.72
63903;BME280;50072;50.678;13.938;2023-04-04T02:39:45;100593.97;;;1.67;67.76
63903;BME280;50072;50.678;13.938;2023-04-04T02:42:13;100600.06;;;1.64;67.56
63903;BME280;50072;50.678;13.938;2023-04-04T02:44:39;100608.03;;;1.66;67.75
63903;BME280;50072;50.678;13.938;2023-04-04T02:47:13;100596.44;;;1.61;68.55
63903;BME280;50072;50.678;13.938;2023-04-04T02:49:45;100601.91;;;1.67;68.25
63903;BME280;50072;50.678;13.938;2023-04-04T02:52:13;100592.25;;;1.69;67.91
63903;BME280;50072;50.678;13.938;2023-04-04T02:54:39;100588.78;;;1.70;68.15
63903;BME280;50072;50.678;13.938;2023-04-04T02:57:14;100602.75;;;1.66;68.00
63903;BME280;50072;50.678;13.938;2023-04-04T02:59:46;100601.81;;;1.65;67.88
63903;BME280;50072;50.678;13.938;2023-04-04T03:02:13;100597.47;;;1.66;68.13
63903;BME280;50072;50.678;13.938;2023-04-04T03:04:45;100603.66;;;1.68;67.97
63903;BME280;50072;50.678;13.938;2023-04-04T03:07:13;100604.56;;;1.68;68.50
63903;BME280;50072;50.678;13.938;2023-04-04T03:09:45;100598.22;;;1.62;69.16
63903;BME280;50072;50.678;13.938;2023-04-04T03:12:13;100602.63;;;1.61;69.24
63903;BME280;50072;50.678;13.938;2023-04-04T03:14:45;100602.47;;;1.57;69.17
63903;BME280;50072;50.678;13.938;2023-04-04T03:17:14;100596.44;;;1.61;68.78
63903;BME280;50072;50.678;13.938;2023-04-04T03:19:43;100594.75;;;1.63;69.41
63903;BME280;50072;50.678;13.938;2023-04-04T03:22:15;100597.25;;;1.58;69.05
63903;BME280;50072;50.678;13.938;2023-04-04T03:24:43;100591.94;;;1.57;69.41
63903;BME280;50072;50.678;13.938;2023-04-04T03:27:15;100586.66;;;1.57;69.75
63903;BME280;50072;50.678;13.938;2023-04-04T03:29:46;100596.41;;;1.59;68.81
63903;BME280;50072;50.678;13.938;2023-04-04T03:32:13;100592.66;;;1.51;69.16
63903;BME280;50072;50.678;13.938;2023-04-04T03:34:44;100597.25;;;1.58;69.82
63903;BME280;50072;50.678;13.938;2023-04-04T03:37:13;100591.09;;;1.58;68.55
63903;BME280;50072;50.678;13.938;2023-04-04T03:39:45;100588.31;;;1.51;69.09
63903;BME280;50072;50.678;13.938;2023-04-04T03:42:13;100583.13;;;1.56;69.37
63903;BME280;50072;50.678;13.938;2023-04-04T03:44:41;100586.59;;;1.53;69.05
63903;BME280;50072;50.678;13.938;2023-04-04T03:47:09;100586.53;;;1.52;68.21
63903;BME280;50072;50.678;13.938;2023-04-04T03:49:38;100583.09;;;1.54;68.49
63903;BME280;50072;50.678;13.938;2023-04-04T03:52:14;100588.31;;;1.51;68.60
63903;BME280;50072;50.678;13.938;2023-04-04T03:54:44;100582.75;;;1.42;69.37
63903;BME280;50072;50.678;13.938;2023-04-04T03:57:14;100581.06;;;1.44;69.36
63903;BME280;50072;50.678;13.938;2023-04-04T03:59:46;100579.25;;;1.42;69.63
63903;BME280;50072;50.678;13.938;2023-04-04T04:02:11;100587.13;;;1.40;69.94
63903;BME280;50072;50.678;13.938;2023-04-04T04:04:39;100580.88;;;1.38;69.51
63903;BME280;50072;50.678;13.938;2023-04-04T04:07:07;100579.22;;;1.40;69.73
63903;BME280;50072;50.678;13.938;2023-04-04T04:09:34;100587.16;;;1.42;69.34
63903;BME280;50072;50.678;13.938;2023-04-04T04:12:04;100589.91;;;1.46;70.00
63903;BME280;50072;50.678;13.938;2023-04-04T04:14:30;100592.47;;;1.43;69.62
63903;BME280;50072;50.678;13.938;2023-04-04T04:16:56;100584.56;;;1.43;70.49
63903;BME280;50072;50.678;13.938;2023-04-04T04:19:23;100590.75;;;1.45;69.77
63903;BME280;50072;50.678;13.938;2023-04-04T04:21:50;100587.16;;;1.42;69.99
63903;BME280;50072;50.678;13.938;2023-04-04T04:24:16;100585.22;;;1.34;70.19
63903;BME280;50072;50.678;13.938;2023-04-04T04:26:42;100588.03;;;1.42;69.88
63903;BME280;50072;50.678;13.938;2023-04-04T04:29:09;100591.56;;;1.41;70.54
63903;BME280;50072;50.678;13.938;2023-04-04T04:31:36;100594.13;;;1.40;69.66
63903;BME280;50072;50.678;13.938;2023-04-04T04:34:09;100593.28;;;1.41;70.30
63903;BME280;50072;50.678;13.938;2023-04-04T04:36:35;100590.59;;;1.39;70.00
63903;BME280;50072;50.678;13.938;2023-04-04T04:39:02;100594.03;;;1.36;69.59
63903;BME280;50072;50.678;13.938;2023-04-04T04:41:28;100583.53;;;1.38;69.83
63903;BME280;50072;50.678;13.938;2023-04-04T04:43:55;100592.31;;;1.37;69.45
63903;BME280;50072;50.678;13.938;2023-04-04T04:46:23;100597.72;;;1.42;70.05
63903;BME280;50072;50.678;13.938;2023-04-04T04:48:50;100600.31;;;1.40;69.07
63903;BME280;50072;50.678;13.938;2023-04-04T04:51:16;100598.56;;;1.41;69.34
63903;BME280;50072;50.678;13.938;2023-04-04T04:53:44;100600.31;;;1.40;70.19
63903;BME280;50072;50.678;13.938;2023-04-04T04:56:09;100604.66;;;1.40;70.22
63903;BME280;50072;50.678;13.938;2023-04-04T04:58:36;100600.50;;;1.48;69.81
63903;BME280;50072;50.678;13.938;2023-04-04T05:01:03;100602.25;;;1.47;70.28
63903;BME280;50072;50.678;13.938;2023-04-04T05:03:32;100593.50;;;1.48;70.35
63903;BME280;50072;50.678;13.938;2023-04-04T05:05:59;100599.63;;;1.47;69.75
63903;BME280;50072;50.678;13.938;2023-04-04T05:08:26;100601.53;;;1.53;70.01
63903;BME280;50072;50.678;13.938;2023-04-04T05:10:52;100598.13;;;1.57;69.65
63903;BME280;50072;50.678;13.938;2023-04-04T05:13:19;100603.59;;;1.65;69.17
63903;BME280;50072;50.678;13.938;2023-04-04T05:15:46;100605.38;;;1.66;69.29
63903;BME280;50072;50.678;13.938;2023-04-04T05:18:13;100604.53;;;1.67;68.81
63903;BME280;50072;50.678;13.938;2023-04-04T05:20:40;100604.44;;;1.64;68.35
63903;BME280;50072;50.678;13.938;2023-04-04T05:23:07;100609.72;;;1.64;68.64
63903;BME280;50072;50.678;13.938;2023-04-04T05:25:34;100611.53;;;1.66;68.42
63903;BME280;50072;50.678;13.938;2023-04-04T05:28:01;100606.47;;;1.74;68.20
63903;BME280;50072;50.678;13.938;2023-04-04T05:30:29;100610.13;;;1.79;67.19
63903;BME280;50072;50.678;13.938;2023-04-04T05:32:56;100614.63;;;1.83;66.82
63903;BME280;50072;50.678;13.938;2023-04-04T05:35:24;100619.94;;;1.85;67.68
63903;BME280;50072;50.678;13.938;2023-04-04T05:37:51;100611.25;;;1.89;67.34
63903;BME280;50072;50.678;13.938;2023-04-04T05:40:19;100613.13;;;1.93;66.34
63903;BME280;50072;50.678;13.938;2023-04-04T05:42:58;100624.72;;;2.00;65.85
63903;BME280;50072;50.678;13.938;2023-04-04T05:45:30;100618.66;;;2.04;65.78
63903;BME280;50072;50.678;13.938;2023-04-04T05:47:59;100623.16;;;2.08;65.18
63903;BME280;50072;50.678;13.938;2023-04-04T05:50:27;100622.31;;;2.09;64.62
63903;BME280;50072;50.678;13.938;2023-04-04T05:52:54;100620.75;;;2.17;64.79
63903;BME280;50072;50.678;13.938;2023-04-04T05:55:22;100625.25;;;2.21;64.96
63903;BME280;50072;50.678;13.938;2023-04-04T05:57:51;100624.47;;;2.26;64.70
63903;BME280;50072;50.678;13.938;2023-04-04T06:00:18;100616.63;;;2.29;64.67
63903;BME280;50072;50.678;13.938;2023-04-04T06:02:46;100623.75;;;2.33;64.55
63903;BME280;50072;50.678;13.938;2023-04-04T06:05:13;100632.63;;;2.36;64.96
63903;BME280;50072;50.678;13.938;2023-04-04T06:07:43;100617.88;;;2.45;63.95
63903;BME280;50072;50.678;13.938;2023-04-04T06:10:16;100626.88;;;2.53;64.07
63903;BME280;50072;50.678;13.938;2023-04-04T06:12:43;100622.63;;;2.59;64.47
63903;BME280;50072;50.678;13.938;2023-04-04T06:15:14;100628.31;;;2.78;63.88
63903;BME280;50072;50.678;13.938;2023-04-04T06:17:45;100627.53;;;2.82;62.97
63903;BME280;50072;50.678;13.938;2023-04-04T06:20:13;100625.97;;;2.93;62.05
63903;BME280;50072;50.678;13.938;2023-04-04T06:22:47;100620.06;;;3.04;62.02
63903;BME280;50072;50.678;13.938;2023-04-04T06:25:14;100619.25;;;3.08;61.63
63903;BME280;50072;50.678;13.938;2023-04-04T06:27:46;100629.97;;;3.16;61.10
63903;BME280;50072;50.678;13.938;2023-04-04T06:30:14;100630.88;;;3.16;60.56
63903;BME280;50072;50.678;13.938;2023-04-04T06:32:43;100625.72;;;3.22;60.58
63903;BME280;50072;50.678;13.938;2023-04-04T06:35:09;100629.34;;;3.27;59.73
63903;BME280;50072;50.678;13.938;2023-04-04T06:37:35;100630.28;;;3.30;59.47
63903;BME280;50072;50.678;13.938;2023-04-04T06:40:01;100631.31;;;3.38;60.00
63903;BME280;50072;50.678;13.938;2023-04-04T06:42:30;100633.28;;;3.48;59.98
63903;BME280;50072;50.678;13.938;2023-04-04T06:44:56;100628.91;;;3.50;58.92
63903;BME280;50072;50.678;13.938;2023-04-04T06:47:22;100615.44;;;3.38;58.14
63903;BME280;50072;50.678;13.938;2023-04-04T06:49:47;100619.88;;;3.40;57.73
63903;BME280;50072;50.678;13.938;2023-04-04T06:52:13;100618.97;;;3.38;58.73
63903;BME280;50072;50.678;13.938;2023-04-04T06:54:39;100620.81;;;3.42;57.64
63903;BME280;50072;50.678;13.938;2023-04-04T06:57:07;100618.19;;;3.42;57.44
63903;BME280;50072;50.678;13.938;2023-04-04T06:59:36;100621.66;;;3.40;56.74
63903;BME280;50072;50.678;13.938;2023-04-04T07:02:03;100617.25;;;3.42;58.12
63903;BME280;50072;50.678;13.938;2023-04-04T07:04:35;100616.38;;;3.41;56.44
63903;BME280;50072;50.678;13.938;2023-04-04T07:07:04;100624.44;;;3.49;56.38
63903;BME280;50072;50.678;13.938;2023-04-04T07:09:31;100622.41;;;3.33;56.28
63903;BME280;50072;50.678;13.938;2023-04-04T07:11:58;100619.75;;;3.33;56.33
63903;BME280;50072;50.678;13.938;2023-04-04T07:14:30;100624.09;;;3.31;56.05
63903;BME280;50072;50.678;13.938;2023-04-04T07:16:56;100617.63;;;3.15;55.93
63903;BME280;50072;50.678;13.938;2023-04-04T07:19:24;100621.97;;;3.11;55.58
63903;BME280;50072;50.678;13.938;2023-04-04T07:21:54;100621.91;;;3.08;56.29
63903;BME280;50072;50.678;13.938;2023-04-04T07:24:21;100621.91;;;3.08;55.81
63903;BME280;50072;50.678;13.938;2023-04-04T07:26:54;100615.50;;;2.97;56.85
63903;BME280;50072;50.678;13.938;2023-04-04T07:29:25;100621.56;;;2.92;55.52
63903;BME280;50072;50.678;13.938;2023-04-04T07:31:56;100620.03;;;3.02;54.25
63903;BME280;50072;50.678;13.938;2023-04-04T07:34:24;100616.22;;;3.32;53.23
63903;BME280;50072;50.678;13.938;2023-04-04T07:37:09;100621.09;;;3.56;53.76
63903;BME280;50072;50.678;13.938;2023-04-04T07:39:42;100621.47;;;3.78;52.52
63903;BME280;50072;50.678;13.938;2023-04-04T07:42:14;100619.84;;;3.86;52.15
63903;BME280;50072;50.678;13.938;2023-04-04T07:44:40;100614.81;;;4.02;52.62
63903;BME280;50072;50.678;13.938;2023-04-04T07:47:14;100629.22;;;4.18;51.07
63903;BME280;50072;50.678;13.938;2023-04-04T07:49:40;100611.00;;;4.39;52.05
63903;BME280;50072;50.678;13.938;2023-04-04T07:52:07;100613.56;;;4.35;52.17
63903;BME280;50072;50.678;13.938;2023-04-04T07:54:34;100615.09;;;4.20;51.13
63903;BME280;50072;50.678;13.938;2023-04-04T07:57:00;100617.22;;;4.41;51.30
63903;BME280;50072;50.678;13.938;2023-04-04T07:59:27;100615.03;;;4.74;49.94
63903;BME280;50072;50.678;13.938;2023-04-04T08:01:53;100615.91;;;4.73;49.40
63903;BME280;50072;50.678;13.938;2023-04-04T08:04:19;100613.84;;;4.53;49.42
63903;BME280;50072;50.678;13.938;2023-04-04T08:06:46;100612.84;;;4.43;49.95
63903;BME280;50072;50.678;13.938;2023-04-04T08:09:12;100611.59;;;4.21;49.92
63903;BME280;50072;50.678;13.938;2023-04-04T08:11:38;100612.28;;;4.08;50.70
63903;BME280;50072;50.678;13.938;2023-04-04T08:14:03;100614.16;;;4.15;49.64
63903;BME280;50072;50.678;13.938;2023-04-04T08:16:30;100609.69;;;4.11;49.69
63903;BME280;50072;50.678;13.938;2023-04-04T08:18:58;100613.22;;;4.13;50.29
63903;BME280;50072;50.678;13.938;2023-04-04T08:21:31;100604.16;;;3.98;51.83
63903;BME280;50072;50.678;13.938;2023-04-04T08:23:58;100609.47;;;3.98;50.55
63903;BME280;50072;50.678;13.938;2023-04-04T08:26:25;100607.88;;;4.08;50.47
63903;BME280;50072;50.678;13.938;2023-04-04T08:28:54;100608.06;;;4.19;50.25
63903;BME280;50072;50.678;13.938;2023-04-04T08:31:21;100607.94;;;4.13;48.78
63903;BME280;50072;50.678;13.938;2023-04-04T08:33:47;100606.09;;;4.09;49.60
63903;BME280;50072;50.678;13.938;2023-04-04T08:36:14;100600.75;;;4.06;50.52
63903;BME280;50072;50.678;13.938;2023-04-04T08:38:46;100604.13;;;3.95;49.15
63903;BME280;50072;50.678;13.938;2023-04-04T08:41:12;100594.44;;;3.97;49.17
63903;BME280;50072;50.678;13.938;2023-04-04T08:43:43;100600.72;;;4.04;48.12
63903;BME280;50072;50.678;13.938;2023-04-04T08:46:13;100598.13;;;4.07;48.31
63903;BME280;50072;50.678;13.938;2023-04-04T08:48:41;100591.41;;;4.28;47.19
63903;BME280;50072;50.678;13.938;2023-04-04T08:51:10;100586.72;;;4.71;47.65
63903;BME280;50072;50.678;13.938;2023-04-04T08:53:37;100577.72;;;5.30;43.43
63903;BME280;50072;50.678;13.938;2023-04-04T08:56:04;100585.38;;;5.90;41.54
63903;BME280;50072;50.678;13.938;2023-04-04T08:58:31;100577.69;;;6.24;40.17
63903;BME280;50072;50.678;13.938;2023-04-04T09:00:57;100582.47;;;6.74;37.75
63903;BME280;50072;50.678;13.938;2023-04-04T09:03:26;100582.53;;;6.90;36.81
63903;BME280;50072;50.678;13.938;2023-04-04T09:05:54;100584.50;;;7.45;35.00
63903;BME280;50072;50.678;13.938;2023-04-04T09:08:20;100581.84;;;7.62;33.63
63903;BME280;50072;50.678;13.938;2023-04-04T09:10:49;100575.69;;;7.75;33.69
63903;BME280;50072;50.678;13.938;2023-04-04T09:13:16;100583.69;;;7.97;34.54
63903;BME280;50072;50.678;13.938;2023-04-04T09:15:46;100583.66;;;7.89;32.54
63903;BME280;50072;50.678;13.938;2023-04-04T09:18:14;100573.00;;;8.05;34.43
63903;BME280;50072;50.678;13.938;2023-04-04T09:20:44;100575.69;;;8.02;32.90
63903;BME280;50072;50.678;13.938;2023-04-04T09:23:11;100575.69;;;8.19;32.89
63903;BME280;50072;50.678;13.938;2023-04-04T09:25:49;100578.31;;;8.43;34.01
63903;BME280;50072;50.678;13.938;2023-04-04T09:28:15;100577.44;;;8.54;32.02
63903;BME280;50072;50.678;13.938;2023-04-04T09:30:43;100565.88;;;8.49;32.73
63903;BME280;50072;50.678;13.938;2023-04-04T09:33:14;100574.78;;;8.21;33.52
63903;BME280;50072;50.678;13.938;2023-04-04T09:35:48;100575.69;;;8.31;34.52
63903;BME280;50072;50.678;13.938;2023-04-04T09:38:20;100570.31;;;8.40;32.32
63903;BME280;50072;50.678;13.938;2023-04-04T09:40:48;100575.63;;;8.60;32.83
63903;BME280;50072;50.678;13.938;2023-04-04T09:43:15;100569.44;;;8.30;32.01
63903;BME280;50072;50.678;13.938;2023-04-04T09:45:44;100568.53;;;8.55;33.69
63903;BME280;50072;50.678;13.938;2023-04-04T09:48:11;100564.94;;;8.71;33.44
63903;BME280;50072;50.678;13.938;2023-04-04T09:50:44;100569.25;;;9.11;33.71
63903;BME280;50072;50.678;13.938;2023-04-04T09:53:20;100565.22;;;9.83;33.31
63903;BME280;50072;50.678;13.938;2023-04-04T09:55:53;100569.38;;;10.23;32.21
63903;BME280;50072;50.678;13.938;2023-04-04T09:58:29;100560.16;;;10.58;30.02
63903;BME280;50072;50.678;13.938;2023-04-04T10:01:08;100564.84;;;11.13;29.67
63903;BME280;50072;50.678;13.938;2023-04-04T10:03:35;100562.50;;;10.85;28.21
63903;BME280;50072;50.678;13.938;2023-04-04T10:06:07;100563.34;;;10.91;31.00
63903;BME280;50072;50.678;13.938;2023-04-04T10:08:38;100556.63;;;11.26;30.41
63903;BME280;50072;50.678;13.938;2023-04-04T10:11:07;100556.28;;;11.52;28.47
63903;BME280;50072;50.678;13.938;2023-04-04T10:13:35;100553.94;;;11.86;29.64
63903;BME280;50072;50.678;13.938;2023-04-04T10:16:07;100551.75;;;12.13;29.19
63903;BME280;50072;50.678;13.938;2023-04-04T10:18:34;100553.28;;;12.28;28.08
63903;BME280;50072;50.678;13.938;2023-04-04T10:21:03;100560.56;;;12.68;29.54
63903;BME280;50072;50.678;13.938;2023-04-04T10:23:30;100554.63;;;12.98;28.28
63903;BME280;50072;50.678;13.938;2023-04-04T10:26:00;100527.72;;;12.99;27.03
63903;BME280;50072;50.678;13.938;2023-04-04T10:28:27;100535.47;;;13.57;26.50
63903;BME280;50072;50.678;13.938;2023-04-04T10:36:29;100534.81;;;14.52;23.99
63903;BME280;50072;50.678;13.938;2023-04-04T10:39:03;100530.53;;;14.79;25.05
63903;BME280;50072;50.678;13.938;2023-04-04T10:41:39;100543.47;;;14.66;25.58
63903;BME280;50072;50.678;13.938;2023-04-04T10:44:37;100533.00;;;15.47;23.37
63903;BME280;50072;50.678;13.938;2023-04-04T10:47:15;100533.97;;;16.28;24.52
63903;BME280;50072;50.678;13.938;2023-04-04T10:49:44;100536.00;;;16.71;24.44
63903;BME280;50072;50.678;13.938;2023-04-04T10:52:14;100537.22;;;17.81;21.83
63903;BME280;50072;50.678;13.938;2023-04-04T10:54:42;100535.81;;;18.15;21.14
63903;BME280;50072;50.678;13.938;2023-04-04T10:57:11;100533.50;;;18.49;21.62
63903;BME280;50072;50.678;13.938;2023-04-04T11:00:09;100526.16;;;18.71;20.38
63903;BME280;50072;50.678;13.938;2023-04-04T11:02:47;100526.16;;;18.71;20.12
63903;BME280;50072;50.678;13.938;2023-04-04T11:05:32;100523.03;;;19.39;20.08
63903;BME280;50072;50.678;13.938;2023-04-04T11:08:09;100526.94;;;20.26;19.01
63903;BME280;50072;50.678;13.938;2023-04-04T11:10:43;100523.97;;;21.16;18.35
63903;BME280;50072;50.678;13.938;2023-04-04T11:13:30;100522.59;;;20.92;19.24
63903;BME280;50072;50.678;13.938;2023-04-04T11:16:10;100529.13;;;21.05;18.11
63903;BME280;50072;50.678;13.938;2023-04-04T11:21:14;100524.50;;;15.87;22.21
63903;BME280;50072;50.678;13.938;2023-04-04T11:26:43;100524.41;;;19.67;18.43
63903;BME280;50072;50.678;13.938;2023-04-04T11:29:20;100511.25;;;21.33;16.35
63903;BME280;50072;50.678;13.938;2023-04-04T11:31:47;100508.41;;;22.45;15.89
63903;BME280;50072;50.678;13.938;2023-04-04T11:34:28;100509.91;;;22.50;14.75
63903;BME280;50072;50.678;13.938;2023-04-04T11:36:55;100498.09;;;23.92;14.23
63903;BME280;50072;50.678;13.938;2023-04-04T11:39:28;100506.81;;;24.91;13.67
63903;BME280;50072;50.678;13.938;2023-04-04T11:42:13;100504.16;;;21.62;16.80
63903;BME280;50072;50.678;13.938;2023-04-04T11:45:05;100508.47;;;18.62;20.48
63903;BME280;50072;50.678;13.938;2023-04-04T11:47:46;100505.38;;;18.10;18.80
63903;BME280;50072;50.678;13.938;2023-04-04T11:50:14;100507.22;;;20.91;17.53
63903;BME280;50072;50.678;13.938;2023-04-04T11:52:41;100505.47;;;22.17;16.75
63903;BME280;50072;50.678;13.938;2023-04-04T11:55:17;100492.38;;;22.69;16.67
63903;BME280;50072;50.678;13.938;2023-04-04T11:57:48;100495.22;;;24.74;14.44
63903;BME280;50072;50.678;13.938;2023-04-04T12:00:31;100486.13;;;25.98;13.07
63903;BME280;50072;50.678;13.938;2023-04-04T12:02:57;100483.09;;;26.38;13.39
63903;BME280;50072;50.678;13.938;2023-04-04T12:05:29;100479.31;;;27.09;12.63
63903;BME280;50072;50.678;13.938;2023-04-04T12:07:57;100480.28;;;26.62;13.30
63903;BME280;50072;50.678;13.938;2023-04-04T12:10:23;100482.28;;;25.76;12.86
63903;BME280;50072;50.678;13.938;2023-04-04T12:12:54;100467.91;;;25.61;13.03
63903;BME280;50072;50.678;13.938;2023-04-04T12:15:22;100472.34;;;25.51;14.18
63903;BME280;50072;50.678;13.938;2023-04-04T12:17:48;100471.13;;;22.74;15.90
63903;BME280;50072;50.678;13.938;2023-04-04T12:20:17;100479.41;;;23.72;15.34
63903;BME280;50072;50.678;13.938;2023-04-04T12:22:49;100479.06;;;20.06;17.71
63903;BME280;50072;50.678;13.938;2023-04-04T12:25:22;100480.22;;;20.52;17.08
63903;BME280;50072;50.678;13.938;2023-04-04T12:27:51;100480.56;;;19.38;18.11
63903;BME280;50072;50.678;13.938;2023-04-04T12:30:19;100462.53;;;17.31;19.89
63903;BME280;50072;50.678;13.938;2023-04-04T12:32:46;100473.97;;;19.25;19.11
63903;BME280;50072;50.678;13.938;2023-04-04T12:35:14;100465.97;;;22.69;17.14
63903;BME280;50072;50.678;13.938;2023-04-04T12:40:36;100464.59;;;21.39;15.76
63903;BME280;50072;50.678;13.938;2023-04-04T12:43:07;100467.19;;;23.77;15.77
63903;BME280;50072;50.678;13.938;2023-04-04T12:45:39;100452.09;;;25.15;13.55
63903;BME280;50072;50.678;13.938;2023-04-04T12:48:13;100451.63;;;26.42;12.86
63903;BME280;50072;50.678;13.938;2023-04-04T12:50:51;100421.88;;;27.06;12.29
63903;BME280;50072;50.678;13.938;2023-04-04T12:53:28;100453.78;;;26.50;12.75
63903;BME280;50072;50.678;13.938;2023-04-04T12:55:58;100441.00;;;26.26;12.45
63903;BME280;50072;50.678;13.938;2023-04-04T12:58:26;100437.03;;;27.66;11.79
63903;BME280;50072;50.678;13.938;2023-04-04T13:00:54;100449.50;;;28.35;12.17
63903;BME280;50072;50.678;13.938;2023-04-04T13:03:24;100437.13;;;28.09;12.16
63903;BME280;50072;50.678;13.938;2023-04-04T13:05:54;100433.31;;;28.21;12.42
63903;BME280;50072;50.678;13.938;2023-04-04T13:08:20;100434.94;;;27.91;11.65
63903;BME280;50072;50.678;13.938;2023-04-04T13:11:03;100426.03;;;27.66;12.92
63903;BME280;50072;50.678;13.938;2023-04-04T13:13:36;100422.59;;;26.51;11.45
63903;BME280;50072;50.678;13.938;2023-04-04T13:16:08;100435.53;;;22.02;14.96
63903;BME280;50072;50.678;13.938;2023-04-04T13:18:37;100439.41;;;25.01;13.03
63903;BME280;50072;50.678;13.938;2023-04-04T13:21:08;100423.75;;;22.89;14.05